createdAt,value
2023-03-15T00:04:39.550Z,1.33
2023-03-15T00:09:41.071Z,1.15
2023-03-15T00:14:42.636Z,1.33
2023-03-15T00:19:44.124Z,1.20
2023-03-15T00:24:45.617Z,1.20
2023-03-15T00:29:47.269Z,1.40
2023-03-15T00:34:48.813Z,1.30
2023-03-15T00:39:50.335Z,1.40
2023-03-15T00:44:51.850Z,1.45
2023-03-15T00:49:53.380Z,1.40
2023-03-15T00:54:57.215Z,1.30
2023-03-15T00:59:58.843Z,1.45
2023-03-15T01:05:02.161Z,1.20
2023-03-15T01:10:05.483Z,1.30
2023-03-15T01:15:08.917Z,1.30
2023-03-15T01:20:13.863Z,1.80
2023-03-15T01:25:16.871Z,1.35
2023-03-15T01:30:19.793Z,1.40
2023-03-15T01:35:22.781Z,3.33
2023-03-15T01:40:24.480Z,1.73
2023-03-15T01:46:06.182Z,1.63
2023-03-15T01:51:26.496Z,1.30
2023-03-15T01:56:29.085Z,1.60
2023-03-15T02:01:31.982Z,2.05
2023-03-15T02:06:34.611Z,1.60
2023-03-15T02:11:36.630Z,1.80
2023-03-15T02:16:40.005Z,1.77
2023-03-15T02:22:05.190Z,4.55
2023-03-15T02:27:07.231Z,1.48
2023-03-15T02:32:08.891Z,2.17
2023-03-15T02:37:10.384Z,2.08
2023-03-15T02:42:12.028Z,1.67
2023-03-15T02:47:18.033Z,3.35
2023-03-15T02:52:21.175Z,1.60
2023-03-15T02:57:22.730Z,2.15
2023-03-15T03:02:25.094Z,1.75
2023-03-15T03:07:26.670Z,2.92
2023-03-15T03:12:34.328Z,2.05
2023-03-15T03:17:36.036Z,1.83
2023-03-15T03:22:38.665Z,2.75
2023-03-15T03:27:41.417Z,3.15
2023-03-15T03:32:45.156Z,1.83
2023-03-15T03:37:47.875Z,1.75
2023-03-15T03:42:53.451Z,1.80
2023-03-15T03:47:55.424Z,2.72
2023-03-15T03:52:57.376Z,2.42
2023-03-15T03:58:04.409Z,2.13
2023-03-15T04:03:28.710Z,2.15
2023-03-15T04:08:38.841Z,1.90
2023-03-15T04:13:42.005Z,2.55
2023-03-15T04:18:44.812Z,2.20
2023-03-15T04:23:46.659Z,2.20
2023-03-15T04:28:58.759Z,2.25
2023-03-15T04:34:04.253Z,2.88
2023-03-15T04:39:32.004Z,2.30
2023-03-15T04:44:52.560Z,1.98
2023-03-15T04:50:12.057Z,3.22
2023-03-15T04:55:39.713Z,2.00
2023-03-15T05:00:56.099Z,2.40
2023-03-15T05:06:24.662Z,2.88
2023-03-15T05:11:40.964Z,2.20
2023-03-15T05:17:09.658Z,4.32
2023-03-15T05:22:46.469Z,4.75
2023-03-15T05:28:24.403Z,2.83
2023-03-15T05:33:49.042Z,2.00
2023-03-15T05:39:25.864Z,4.22
2023-03-15T05:44:42.090Z,3.42
2023-03-15T05:50:10.130Z,2.83
2023-03-15T05:55:23.649Z,2.33
2023-03-15T06:00:37.998Z,5.05
2023-03-15T06:05:48.921Z,4.25
2023-03-15T06:10:56.160Z,5.53
2023-03-15T06:15:57.800Z,3.20
2023-03-15T06:20:59.660Z,3.05
2023-03-15T06:26:02.155Z,3.00
2023-03-15T06:31:11.361Z,2.85
2023-03-15T06:36:22.427Z,2.97
2023-03-15T06:41:24.766Z,3.10
2023-03-15T06:46:31.994Z,3.10
2023-03-15T06:51:33.678Z,5.43
2023-03-15T06:56:35.238Z,3.03
2023-03-15T07:01:36.750Z,3.17
2023-03-15T07:06:38.286Z,3.90
2023-03-15T07:11:39.751Z,2.95
2023-03-15T07:16:41.262Z,2.50
2023-03-15T07:21:42.708Z,4.25
2023-03-15T07:26:44.193Z,4.60
2023-03-15T07:31:45.644Z,5.05
2023-03-15T07:36:47.169Z,3.15
2023-03-15T07:41:49.218Z,3.85
2023-03-15T07:46:59.113Z,6.28
2023-03-15T07:52:00.617Z,2.60
2023-03-15T07:57:02.151Z,3.78
2023-03-15T08:02:03.684Z,7.38
2023-03-15T08:07:05.584Z,2.95
2023-03-15T08:12:07.489Z,2.33
2023-03-15T08:17:09.137Z,2.65
2023-03-15T08:22:11.082Z,4.75
2023-03-15T08:27:12.637Z,2.55
2023-03-15T08:32:14.154Z,1.90
2023-03-15T08:37:15.620Z,2.30
2023-03-15T08:42:17.048Z,2.03
2023-03-15T08:47:18.865Z,2.20
2023-03-15T08:52:20.705Z,2.42
2023-03-15T08:57:22.211Z,1.75
2023-03-15T09:02:23.846Z,2.05
2023-03-15T09:07:25.327Z,2.25
2023-03-15T09:12:26.788Z,1.80
2023-03-15T09:17:28.263Z,1.80
2023-03-15T09:22:38.898Z,1.90
2023-03-15T09:27:41.242Z,1.90
2023-03-15T09:32:42.816Z,1.85
2023-03-15T09:37:44.539Z,1.65
2023-03-15T09:43:06.369Z,1.60
2023-03-15T09:48:21.058Z,1.75
2023-03-15T09:53:35.975Z,2.33
2023-03-15T09:58:37.645Z,1.50
2023-03-15T10:03:48.470Z,1.42
2023-03-15T10:08:53.314Z,1.40
2023-03-15T10:14:09.084Z,3.25
2023-03-15T10:19:25.579Z,1.60
2023-03-15T10:24:48.716Z,1.40
2023-03-15T10:29:55.086Z,1.40
2023-03-15T10:34:58.386Z,1.30
2023-03-15T10:40:00.196Z,1.25
2023-03-15T10:45:22.158Z,1.40
2023-03-15T10:50:28.030Z,1.00
2023-03-15T10:55:35.786Z,1.42
2023-03-15T11:00:37.789Z,1.08
2023-03-15T11:05:43.727Z,2.10
2023-03-15T11:10:47.169Z,1.40
2023-03-15T11:16:05.000Z,1.13
2023-03-15T11:21:11.971Z,1.08
2023-03-15T11:26:32.241Z,1.00
2023-03-15T11:31:35.981Z,1.00
2023-03-15T11:36:41.401Z,0.98
2023-03-15T11:41:47.411Z,1.10
2023-03-15T11:46:55.575Z,1.27
2023-03-15T11:51:57.401Z,0.80
2023-03-15T11:57:08.284Z,0.90
2023-03-15T12:02:09.884Z,0.90
2023-03-15T12:07:17.407Z,0.90
2023-03-15T12:12:24.917Z,1.00
2023-03-15T12:17:26.431Z,0.80
2023-03-15T12:22:32.666Z,1.58
2023-03-15T12:27:36.682Z,1.00
2023-03-15T12:32:48.898Z,1.00
2023-03-15T12:37:52.826Z,0.90
2023-03-15T12:42:54.271Z,0.93
2023-03-15T12:47:55.739Z,0.80
2023-03-15T12:53:00.384Z,0.88
2023-03-15T12:58:03.310Z,0.82
2023-03-15T13:03:18.719Z,0.90
2023-03-15T13:08:24.873Z,1.10
2023-03-15T13:13:44.964Z,0.80
2023-03-15T13:18:52.428Z,0.82
2023-03-15T13:23:57.698Z,1.92
2023-03-15T13:29:12.720Z,1.20
2023-03-15T13:34:21.580Z,2.65
2023-03-15T13:39:25.975Z,1.90
2023-03-15T13:44:29.842Z,0.80
2023-03-15T13:49:33.326Z,0.90
2023-03-15T13:54:34.926Z,0.90
2023-03-15T14:00:00.194Z,0.90
2023-03-15T14:05:06.331Z,0.73
2023-03-15T14:10:28.108Z,1.67
2023-03-15T14:15:29.493Z,0.77
2023-03-15T14:20:54.705Z,0.85
2023-03-15T14:26:18.213Z,0.82
2023-03-15T14:31:23.090Z,0.90
2023-03-15T14:36:31.256Z,0.80
2023-03-15T14:41:33.318Z,0.90
2023-03-15T14:46:37.376Z,1.15
2023-03-15T14:51:38.976Z,1.38
2023-03-15T14:56:42.612Z,1.50
2023-03-15T15:01:50.366Z,2.17
2023-03-15T15:06:51.998Z,0.77
2023-03-15T15:11:54.386Z,0.70
2023-03-15T15:16:56.029Z,0.77
2023-03-15T15:21:57.666Z,2.55
2023-03-15T15:26:59.219Z,1.15
2023-03-15T15:32:00.794Z,0.85
2023-03-15T15:37:02.378Z,1.17
2023-03-15T15:42:04.030Z,0.68
2023-03-15T15:47:05.591Z,0.80
2023-03-15T15:52:11.656Z,1.00
2023-03-15T15:57:13.534Z,0.88
2023-03-15T16:02:16.548Z,1.50
2023-03-15T16:07:18.158Z,1.10
2023-03-15T16:12:20.063Z,2.00
2023-03-15T16:17:23.324Z,1.10
2023-03-15T16:22:24.840Z,1.77
2023-03-15T16:27:27.919Z,0.80
2023-03-15T16:32:43.381Z,1.15
2023-03-15T16:37:46.107Z,1.02
2023-03-15T16:42:48.595Z,1.50
2023-03-15T16:47:50.459Z,1.05
2023-03-15T16:52:54.820Z,1.02
2023-03-15T16:57:56.920Z,0.85
2023-03-15T17:02:58.398Z,0.80
2023-03-15T17:08:00.003Z,1.05
2023-03-15T17:13:02.685Z,1.20
2023-03-15T17:18:13.622Z,1.52
2023-03-15T17:23:16.241Z,1.42
2023-03-15T17:28:17.755Z,1.38
2023-03-15T17:33:19.280Z,1.00
2023-03-15T17:38:30.435Z,1.35
2023-03-15T17:43:31.907Z,2.40
2023-03-15T17:48:33.365Z,1.30
2023-03-15T17:53:35.900Z,4.68
2023-03-15T17:58:37.641Z,2.05
2023-03-15T18:03:39.600Z,1.20
2023-03-15T18:08:42.208Z,1.50
2023-03-15T18:13:43.782Z,1.20
2023-03-15T18:18:45.417Z,1.17
2023-03-15T18:23:47.532Z,1.67
2023-03-15T18:28:49.062Z,2.60
2023-03-15T18:33:51.666Z,3.38
2023-03-15T18:38:53.242Z,1.33
2023-03-15T18:43:54.708Z,1.30
2023-03-15T18:48:56.322Z,2.05
2023-03-15T18:54:00.559Z,1.40
2023-03-15T18:59:02.112Z,1.45
2023-03-15T19:04:03.915Z,1.48
2023-03-15T19:09:05.683Z,1.42
2023-03-15T19:14:08.467Z,2.42
2023-03-15T19:19:09.884Z,2.30
2023-03-15T19:24:11.519Z,2.75
2023-03-15T19:29:12.955Z,2.53
2023-03-15T19:34:14.482Z,6.25
2023-03-15T19:39:16.056Z,7.43
2023-03-15T19:44:17.573Z,6.57
2023-03-15T19:49:19.109Z,4.85
2023-03-15T19:54:20.558Z,4.13
2023-03-15T19:59:22.072Z,3.33
2023-03-15T20:04:23.553Z,4.40
2023-03-15T20:09:25.064Z,3.75
2023-03-15T20:14:26.575Z,4.03
2023-03-15T20:19:28.102Z,4.90
2023-03-15T20:24:29.690Z,3.45
2023-03-15T20:29:31.769Z,2.38
2023-03-15T20:34:33.430Z,3.60
2023-03-15T20:39:35.204Z,5.57
2023-03-15T20:44:37.416Z,2.85
2023-03-15T20:49:39.069Z,3.10
2023-03-15T20:54:41.224Z,2.50
2023-03-15T20:59:43.047Z,2.55
2023-03-15T21:04:44.721Z,2.63
2023-03-15T21:09:46.225Z,2.63
2023-03-15T21:14:47.770Z,2.85
2023-03-15T21:19:49.284Z,5.97
2023-03-15T21:24:56.034Z,6.07
2023-03-15T21:29:58.248Z,5.15
2023-03-15T21:34:59.827Z,6.07
2023-03-15T21:40:01.328Z,11.82
2023-03-15T21:45:03.025Z,4.88
2023-03-15T21:50:04.932Z,2.63
2023-03-15T21:55:08.401Z,3.40
2023-03-15T22:00:10.949Z,4.13
2023-03-15T22:05:13.384Z,3.60
2023-03-15T22:10:15.250Z,3.45
2023-03-15T22:15:16.796Z,3.90
2023-03-15T22:20:18.402Z,4.22
2023-03-15T22:25:19.935Z,4.70
2023-03-15T22:30:21.569Z,4.50
2023-03-15T22:35:23.212Z,4.90
2023-03-15T22:40:27.418Z,3.45
2023-03-15T22:45:29.158Z,4.93
2023-03-15T22:50:31.053Z,6.05
2023-03-15T22:55:32.527Z,3.42
2023-03-15T23:00:34.045Z,5.63
2023-03-15T23:05:35.559Z,4.22
2023-03-15T23:10:37.376Z,6.15
2023-03-15T23:15:39.064Z,5.03
2023-03-15T23:20:41.716Z,4.45
2023-03-15T23:25:43.931Z,3.90
2023-03-15T23:30:45.379Z,4.90
2023-03-15T23:35:46.909Z,4.38
2023-03-15T23:40:58.480Z,4.43
2023-03-15T23:46:02.698Z,4.38
2023-03-15T23:51:04.339Z,3.95
2023-03-15T23:56:06.220Z,3.42
